CYYU

Kapuskasing Airport

Kapuskasing, Ontario, Canada
TAF CYYU 260142Z 2602/2614 VRB03KT P6SM BKN240 BECMG 2608/2610 23008KT RMK NXT FCST BY 260800Z
Issued Valid From Valid To
Apr-26 @ 01:42 UTC
(2 hours ago)
Apr-26 @ 02:00 UTC
(2 hours ago)
Apr-26 @ 14:00 UTC
(in 10 hours)
Apr-26 @ 02:00 to Apr-26 @ 08:00
TAF CYYU 260142Z 2602/2614 VRB03KT P6SM BKN240
Wind Visibility Clouds
Variable at 3 knots Greater than 6 miles
  • Broken at 24,000' AGL
Becoming Apr-26 @ 08:00 to Apr-26 @ 14:00
BECMG 2608/2610 23008KT RMK NXT FCST BY 260800Z
Wind Visibility Clouds
230° at 8 knots Greater than 6 miles
  • Broken at 24,000' AGL
TAF CYYU 260142Z 2602/2614 VRB03KT P6SM BKN240 BECMG 2608/2610 23008KT RMK NXT FCST BY 260800Z
Issued Apr-26 @ 01:42 UTC
(2 hours ago)
Valid From Apr-26 @ 02:00 UTC
(2 hours ago)
Valid To Apr-26 @ 14:00 UTC
(in 10 hours)
Apr-26 @ 02:00 - Apr-26 @ 08:00
Wind Visibility
Variable at 3 knots Greater than 6 miles
Clouds
  • Broken at 24,000' AGL
Becoming Apr-26 @ 08:00 - Apr-26 @ 14:00
Wind Visibility
230° at 8 knots Greater than 6 miles
Clouds
  • Broken at 24,000' AGL